Time;durP1;ratioP1;P1;durP2;ratioP2;P2;SDS_P1;SDS_P2;PMS_P1;PMS_P2;Temp;Humidity;BMP_temperature;BMP_pressure;BME280_temperature;BME280_humidity;BME280_pressure;Samples;Min_cycle;Max_cycle;Signal;HPM_P1;HPM_P2
2022/07/05 00:00:37;;;;;;;10.88;4.85;;;;;;;;;;5104164;28;20466;-52
2022/07/05 00:03:02;;;;;;;11.18;6.03;;;;;;;;;;5105764;28;20040;-52
2022/07/05 00:05:28;;;;;;;18.70;4.85;;;;;;;;;;5100286;28;20481;-51
2022/07/05 00:07:53;;;;;;;9.77;4.07;;;;;;;;;;5107383;28;20043;-52
2022/07/05 00:10:18;;;;;;;16.13;4.80;;;;;;;;;;5100265;28;20448;-53
2022/07/05 00:12:44;;;;;;;13.75;5.32;;;;;;;;;;5101974;28;20122;-51
2022/07/05 00:15:09;;;;;;;14.20;4.63;;;;;;;;;;5105319;28;20039;-54
2022/07/05 00:17:34;;;;;;;5.40;3.55;;;;;;;;;;5102524;28;20032;-50
2022/07/05 00:20:00;;;;;;;14.77;5.75;;;;;;;;;;5104899;28;20062;-53
2022/07/05 00:22:25;;;;;;;11.57;6.50;;;;;;;;;;5100955;28;20177;-49
2022/07/05 00:24:50;;;;;;;13.98;4.88;;;;;;;;;;5103115;28;20546;-47
2022/07/05 00:27:16;;;;;;;10.63;5.40;;;;;;;;;;5106752;28;20716;-46
2022/07/05 00:29:41;;;;;;;12.70;6.05;;;;;;;;;;5104160;28;20039;-52
2022/07/05 00:32:07;;;;;;;3.60;3.00;;;;;;;;;;5106121;28;20546;-51
2022/07/05 00:34:32;;;;;;;5.55;4.20;;;;;;;;;;5099141;28;20452;-48
2022/07/05 00:36:57;;;;;;;16.77;3.60;;;;;;;;;;5103134;28;20047;-48
2022/07/05 00:39:23;;;;;;;9.73;4.13;;;;;;;;;;5104013;28;20054;-51
2022/07/05 00:41:48;;;;;;;16.27;4.78;;;;;;;;;;5106493;28;20047;-48
2022/07/05 00:44:14;;;;;;;9.43;4.43;;;;;;;;;;5105357;28;20043;-48
2022/07/05 00:46:41;;;;;;;9.30;4.28;;;;;;;;;;5105492;28;20495;-50
2022/07/05 00:49:06;;;;;;;12.90;6.20;;;;;;;;;;5098102;28;20039;-50
2022/07/05 00:51:33;;;;;;;6.93;5.53;;;;;;;;;;5106004;28;20407;-50
2022/07/05 00:53:59;;;;;;;8.70;6.25;;;;;;;;;;5104844;28;20423;-52
2022/07/05 00:56:25;;;;;;;12.00;4.78;;;;;;;;;;5106509;28;20043;-52
2022/07/05 00:58:50;;;;;;;10.65;6.43;;;;;;;;;;5106521;28;20062;-49
2022/07/05 01:01:16;;;;;;;11.10;5.18;;;;;;;;;;5099128;28;20145;-50
2022/07/05 01:03:42;;;;;;;9.45;5.50;;;;;;;;;;5100213;28;20051;-49
2022/07/05 01:06:09;;;;;;;11.10;4.57;;;;;;;;;;5103159;28;20042;-52
2022/07/05 01:08:36;;;;;;;13.57;5.13;;;;;;;;;;5102938;28;20039;-54
2022/07/05 01:11:02;;;;;;;20.70;4.63;;;;;;;;;;5106007;28;20138;-47
2022/07/05 01:13:27;;;;;;;16.40;6.13;;;;;;;;;;5105124;28;20573;-49
2022/07/05 01:15:53;;;;;;;21.75;5.88;;;;;;;;;;5103019;28;20056;-52
2022/07/05 01:18:21;;;;;;;10.43;5.68;;;;;;;;;;5100476;28;20479;-48
2022/07/05 01:20:50;;;;;;;14.77;5.32;;;;;;;;;;5103551;28;20118;-49
2022/07/05 01:23:18;;;;;;;8.93;5.75;;;;;;;;;;5105172;28;20047;-52
2022/07/05 01:25:44;;;;;;;9.88;4.43;;;;;;;;;;5100165;28;20055;-51
2022/07/05 01:28:10;;;;;;;12.43;5.10;;;;;;;;;;5101898;28;20384;-48
2022/07/05 01:30:36;;;;;;;28.13;6.10;;;;;;;;;;5101760;28;20105;-50
2022/07/05 01:33:02;;;;;;;16.08;5.43;;;;;;;;;;5096395;28;20040;-49
2022/07/05 01:35:27;;;;;;;33.75;6.18;;;;;;;;;;5102969;28;20091;-50
2022/07/05 01:37:52;;;;;;;11.73;4.10;;;;;;;;;;5102370;28;20040;-50
2022/07/05 01:40:18;;;;;;;9.52;5.97;;;;;;;;;;5086320;28;20500;-47
2022/07/05 01:42:44;;;;;;;13.27;5.32;;;;;;;;;;5098663;28;20047;-53
2022/07/05 01:45:09;;;;;;;15.13;5.22;;;;;;;;;;5098740;28;20036;-50
2022/07/05 01:47:36;;;;;;;8.95;3.88;;;;;;;;;;5105452;28;20411;-50
2022/07/05 01:50:03;;;;;;;18.23;5.10;;;;;;;;;;5104632;28;20126;-53
2022/07/05 01:52:29;;;;;;;12.05;5.72;;;;;;;;;;5104601;28;20071;-48
2022/07/05 01:54:55;;;;;;;14.68;4.90;;;;;;;;;;5105342;28;20040;-51
2022/07/05 01:57:20;;;;;;;5.75;4.55;;;;;;;;;;5100923;28;20089;-52
2022/07/05 01:59:45;;;;;;;6.68;4.82;;;;;;;;;;5108673;28;20048;-51
2022/07/05 02:02:11;;;;;;;18.83;6.38;;;;;;;;;;5107272;28;20044;-49
2022/07/05 02:04:36;;;;;;;21.17;6.65;;;;;;;;;;5105610;28;20043;-51
2022/07/05 02:07:05;;;;;;;13.55;4.97;;;;;;;;;;5105382;28;20051;-48
2022/07/05 02:09:31;;;;;;;10.35;4.90;;;;;;;;;;5108482;28;20043;-45
2022/07/05 02:11:56;;;;;;;9.43;5.57;;;;;;;;;;5106179;28;20063;-54
2022/07/05 02:14:21;;;;;;;9.65;5.40;;;;;;;;;;5107837;28;20576;-48
2022/07/05 02:16:47;;;;;;;13.65;5.63;;;;;;;;;;5104239;28;20499;-50
2022/07/05 02:19:13;;;;;;;20.38;5.13;;;;;;;;;;5108601;28;20051;-48
2022/07/05 02:21:38;;;;;;;12.27;5.25;;;;;;;;;;5106056;28;20043;-47
2022/07/05 02:24:03;;;;;;;8.55;3.80;;;;;;;;;;5105347;28;20063;-48
2022/07/05 02:26:29;;;;;;;9.95;4.22;;;;;;;;;;5108071;28;20047;-49
2022/07/05 02:28:54;;;;;;;16.50;6.55;;;;;;;;;;5108606;28;20157;-48
2022/07/05 02:31:20;;;;;;;18.50;4.25;;;;;;;;;;5101873;28;20044;-46
2022/07/05 02:33:45;;;;;;;8.93;4.93;;;;;;;;;;5105462;28;20083;-51
2022/07/05 02:36:12;;;;;;;9.85;5.30;;;;;;;;;;5107329;28;20055;-52
2022/07/05 02:38:37;;;;;;;17.35;4.97;;;;;;;;;;5103735;28;20051;-52
2022/07/05 02:41:06;;;;;;;17.80;6.05;;;;;;;;;;5103660;28;20052;-52
2022/07/05 02:43:32;;;;;;;6.07;4.30;;;;;;;;;;5106203;28;20040;-52
2022/07/05 02:45:57;;;;;;;20.05;4.63;;;;;;;;;;5106232;28;20040;-51
2022/07/05 02:48:22;;;;;;;12.50;4.57;;;;;;;;;;5108781;28;20100;-50
2022/07/05 02:50:48;;;;;;;13.95;5.97;;;;;;;;;;5108032;28;20047;-46
2022/07/05 02:53:13;;;;;;;12.68;3.85;;;;;;;;;;5102857;28;20047;-49
2022/07/05 02:55:38;;;;;;;14.75;4.85;;;;;;;;;;5102256;28;20085;-51
2022/07/05 02:58:04;;;;;;;25.50;5.22;;;;;;;;;;5106239;28;20048;-45
2022/07/05 03:00:29;;;;;;;12.45;4.60;;;;;;;;;;5108018;28;20046;-49
2022/07/05 03:02:54;;;;;;;7.75;4.43;;;;;;;;;;5104059;28;20096;-52
2022/07/05 03:05:20;;;;;;;8.88;4.28;;;;;;;;;;5105225;28;20399;-51
2022/07/05 03:07:45;;;;;;;12.95;4.70;;;;;;;;;;5107299;28;20084;-49
2022/07/05 03:10:11;;;;;;;11.88;5.60;;;;;;;;;;5096551;28;20131;-47
2022/07/05 03:12:36;;;;;;;8.25;4.72;;;;;;;;;;5103235;28;20464;-53
2022/07/05 03:15:01;;;;;;;6.22;3.70;;;;;;;;;;5106362;28;20055;-47
2022/07/05 03:17:26;;;;;;;14.15;4.80;;;;;;;;;;5106102;28;20790;-48
2022/07/05 03:19:52;;;;;;;25.02;5.45;;;;;;;;;;5103255;28;20523;-47
2022/07/05 03:22:17;;;;;;;13.27;4.40;;;;;;;;;;5103326;28;20146;-47
2022/07/05 03:24:42;;;;;;;21.90;6.25;;;;;;;;;;5101956;28;20130;-47
2022/07/05 03:27:08;;;;;;;14.38;6.82;;;;;;;;;;5107482;28;20047;-51
2022/07/05 03:29:33;;;;;;;11.40;5.18;;;;;;;;;;5104952;28;20047;-51
2022/07/05 03:31:58;;;;;;;10.98;4.90;;;;;;;;;;5106594;28;20042;-48
2022/07/05 03:34:24;;;;;;;32.97;5.57;;;;;;;;;;5103277;28;20442;-47
2022/07/05 03:36:49;;;;;;;11.70;5.30;;;;;;;;;;5105610;28;20071;-50
2022/07/05 03:39:14;;;;;;;14.90;7.90;;;;;;;;;;5106821;28;20069;-49
2022/07/05 03:41:39;;;;;;;15.45;4.50;;;;;;;;;;5106084;28;20406;-50
2022/07/05 03:44:05;;;;;;;16.55;5.40;;;;;;;;;;5105077;28;20487;-49
2022/07/05 03:46:30;;;;;;;11.50;6.93;;;;;;;;;;5101792;28;20473;-51
2022/07/05 03:48:55;;;;;;;7.15;4.88;;;;;;;;;;5106775;28;20508;-50
2022/07/05 03:51:21;;;;;;;6.60;3.78;;;;;;;;;;5106507;28;20054;-47
2022/07/05 03:53:46;;;;;;;14.00;5.60;;;;;;;;;;5103668;28;20055;-49
2022/07/05 03:56:11;;;;;;;19.50;5.47;;;;;;;;;;5099566;28;20047;-49
2022/07/05 03:58:37;;;;;;;14.25;6.15;;;;;;;;;;5105610;28;20061;-51
2022/07/05 04:01:02;;;;;;;16.02;3.97;;;;;;;;;;5104372;28;20053;-51
2022/07/05 04:03:28;;;;;;;11.35;7.20;;;;;;;;;;5107111;28;20088;-49
2022/07/05 04:05:53;;;;;;;9.70;5.25;;;;;;;;;;5107290;28;20048;-48
2022/07/05 04:08:18;;;;;;;8.95;5.72;;;;;;;;;;5105170;28;20065;-50
2022/07/05 04:10:44;;;;;;;20.23;3.45;;;;;;;;;;5103876;28;20040;-51
2022/07/05 04:13:09;;;;;;;19.13;4.28;;;;;;;;;;5105470;28;20048;-51
2022/07/05 04:15:34;;;;;;;11.73;4.68;;;;;;;;;;5101448;28;20043;-50
2022/07/05 04:18:00;;;;;;;22.15;5.88;;;;;;;;;;5105441;28;20623;-50
2022/07/05 04:20:25;;;;;;;20.35;5.35;;;;;;;;;;5105833;28;20589;-46
2022/07/05 04:22:51;;;;;;;9.45;4.55;;;;;;;;;;5105111;28;20442;-48
2022/07/05 04:25:17;;;;;;;8.68;7.35;;;;;;;;;;5103776;28;20779;-49
2022/07/05 04:27:43;;;;;;;10.43;4.03;;;;;;;;;;5103436;28;20070;-52
2022/07/05 04:30:08;;;;;;;32.72;5.18;;;;;;;;;;5101541;28;20959;-48
2022/07/05 04:32:34;;;;;;;11.38;4.95;;;;;;;;;;5100487;28;20055;-48
2022/07/05 04:34:59;;;;;;;9.35;6.25;;;;;;;;;;5098828;28;20039;-52
2022/07/05 04:37:24;;;;;;;9.43;4.38;;;;;;;;;;5087112;28;20048;-49
2022/07/05 04:39:50;;;;;;;14.27;8.07;;;;;;;;;;5106527;28;20040;-51
2022/07/05 04:42:15;;;;;;;13.90;5.03;;;;;;;;;;5102479;28;20048;-48
2022/07/05 04:44:40;;;;;;;10.05;5.30;;;;;;;;;;5104656;28;20122;-49
2022/07/05 04:47:06;;;;;;;7.22;5.32;;;;;;;;;;5102364;28;20502;-50
2022/07/05 04:49:31;;;;;;;12.40;4.93;;;;;;;;;;5103076;28;20039;-50
2022/07/05 04:51:56;;;;;;;7.28;5.10;;;;;;;;;;5101177;28;20062;-53
2022/07/05 04:54:22;;;;;;;10.27;5.00;;;;;;;;;;5103585;28;20043;-52
2022/07/05 04:56:47;;;;;;;9.52;3.65;;;;;;;;;;5106297;28;20043;-47
2022/07/05 04:59:12;;;;;;;4.95;4.00;;;;;;;;;;5103840;28;20459;-53
2022/07/05 05:01:38;;;;;;;5.63;3.75;;;;;;;;;;5101872;28;20063;-43
2022/07/05 05:04:03;;;;;;;7.35;4.25;;;;;;;;;;5096994;28;20035;-47
2022/07/05 05:06:28;;;;;;;17.65;5.25;;;;;;;;;;5101275;28;20048;-45
2022/07/05 05:08:53;;;;;;;11.23;2.17;;;;;;;;;;5104405;28;20097;-51
2022/07/05 05:11:19;;;;;;;22.13;5.03;;;;;;;;;;5103111;28;20455;-48
2022/07/05 05:13:46;;;;;;;28.63;5.90;;;;;;;;;;5104200;28;20067;-45
2022/07/05 05:16:12;;;;;;;9.18;4.30;;;;;;;;;;5103720;28;20043;-50
2022/07/05 05:18:37;;;;;;;16.00;5.18;;;;;;;;;;5103524;28;20044;-48
2022/07/05 05:21:02;;;;;;;8.73;5.65;;;;;;;;;;5102053;28;20164;-46
2022/07/05 05:23:28;;;;;;;14.85;5.38;;;;;;;;;;5099852;28;20036;-46
2022/07/05 05:25:53;;;;;;;15.70;6.28;;;;;;;;;;5103370;28;20049;-46
2022/07/05 05:28:19;;;;;;;14.70;6.63;;;;;;;;;;5104315;28;20155;-50
2022/07/05 05:30:44;;;;;;;11.98;7.10;;;;;;;;;;5101479;28;20044;-52
2022/07/05 05:33:10;;;;;;;8.93;5.68;;;;;;;;;;5108264;28;20044;-48
2022/07/05 05:35:35;;;;;;;20.27;5.60;;;;;;;;;;5103652;28;20460;-52
2022/07/05 05:38:00;;;;;;;8.55;4.50;;;;;;;;;;5107714;28;20048;-50
2022/07/05 05:40:26;;;;;;;11.18;4.60;;;;;;;;;;5106458;28;20086;-51
2022/07/05 05:42:52;;;;;;;11.80;4.45;;;;;;;;;;5107347;28;20027;-39
2022/07/05 05:45:17;;;;;;;11.32;3.47;;;;;;;;;;5107401;28;20478;-41
2022/07/05 05:47:50;;;;;;;11.65;3.42;;;;;;;;;;5105092;28;20466;-39
2022/07/05 05:50:20;;;;;;;10.27;5.07;;;;;;;;;;5106984;28;20039;-39
2022/07/05 05:52:45;;;;;;;8.02;3.67;;;;;;;;;;5106851;28;20153;-39
2022/07/05 05:55:11;;;;;;;10.93;3.80;;;;;;;;;;5108431;28;20562;-42
2022/07/05 05:57:36;;;;;;;8.77;4.15;;;;;;;;;;5106058;28;20120;-39
2022/07/05 06:00:03;;;;;;;4.55;3.05;;;;;;;;;;5109620;28;20075;-40
2022/07/05 06:02:28;;;;;;;12.23;5.28;;;;;;;;;;5103531;28;20051;-39
2022/07/05 06:04:53;;;;;;;12.15;5.25;;;;;;;;;;5108133;28;20526;-43
2022/07/05 06:07:19;;;;;;;15.32;4.00;;;;;;;;;;5106586;28;20384;-43
2022/07/05 06:09:44;;;;;;;9.30;3.50;;;;;;;;;;5107818;28;20043;-39
2022/07/05 06:12:09;;;;;;;6.28;4.40;;;;;;;;;;5106991;28;20048;-41
2022/07/05 06:14:35;;;;;;;5.68;4.40;;;;;;;;;;5106905;28;20040;-38
2022/07/05 06:17:00;;;;;;;16.95;5.63;;;;;;;;;;5104375;28;20115;-43
2022/07/05 06:19:25;;;;;;;25.92;9.82;;;;;;;;;;5107926;28;20690;-41
2022/07/05 06:21:50;;;;;;;27.55;9.00;;;;;;;;;;5104377;28;20036;-42
2022/07/05 06:24:16;;;;;;;16.13;4.80;;;;;;;;;;5108510;28;20100;-42
2022/07/05 06:26:41;;;;;;;16.70;6.03;;;;;;;;;;5106966;28;20036;-41
2022/07/05 06:29:06;;;;;;;48.55;8.82;;;;;;;;;;5107150;28;20512;-40
2022/07/05 06:31:32;;;;;;;34.70;5.20;;;;;;;;;;5105190;28;20138;-40
2022/07/05 06:33:57;;;;;;;11.15;7.47;;;;;;;;;;5107262;28;20069;-43
2022/07/05 06:36:22;;;;;;;12.43;4.03;;;;;;;;;;5104359;27;20151;-39
2022/07/05 06:38:48;;;;;;;11.15;6.22;;;;;;;;;;5102541;28;20580;-39
2022/07/05 06:41:13;;;;;;;9.00;4.70;;;;;;;;;;5099698;28;20036;-37
2022/07/05 06:43:38;;;;;;;24.48;5.85;;;;;;;;;;5103740;28;20051;-42
2022/07/05 06:46:04;;;;;;;17.55;4.43;;;;;;;;;;5103817;28;20023;-41
2022/07/05 06:48:29;;;;;;;17.55;3.72;;;;;;;;;;5107508;28;20051;-44
2022/07/05 06:50:54;;;;;;;23.67;5.70;;;;;;;;;;5103478;28;20032;-44
2022/07/05 06:53:19;;;;;;;10.05;4.75;;;;;;;;;;5106462;28;20048;-42
2022/07/05 06:55:45;;;;;;;9.95;7.75;;;;;;;;;;5107825;28;20042;-40
2022/07/05 06:58:11;;;;;;;23.35;5.25;;;;;;;;;;5103102;28;20048;-39
2022/07/05 07:00:37;;;;;;;29.13;13.75;;;;;;;;;;5106129;28;20383;-38
2022/07/05 07:03:02;;;;;;;20.83;8.57;;;;;;;;;;5104308;28;20031;-38
2022/07/05 07:05:27;;;;;;;12.45;6.72;;;;;;;;;;5106581;28;20226;-38
2022/07/05 07:10:37;;;;;;;12.23;5.50;;;;;;;;;;5102393;28;20075;-38
2022/07/05 07:13:02;;;;;;;18.67;6.72;;;;;;;;;;5106652;28;20047;-38
2022/07/05 07:15:28;;;;;;;9.57;5.35;;;;;;;;;;5100982;28;20501;-39
2022/07/05 07:17:54;;;;;;;10.27;4.00;;;;;;;;;;5101014;28;20097;-38
2022/07/05 07:20:19;;;;;;;6.25;3.45;;;;;;;;;;5104736;28;20058;-38
2022/07/05 07:22:44;;;;;;;12.07;5.32;;;;;;;;;;5107173;28;20094;-38
2022/07/05 07:25:11;;;;;;;12.27;4.80;;;;;;;;;;5104412;28;20040;-38
2022/07/05 07:27:43;;;;;;;16.52;3.83;;;;;;;;;;5099719;28;20089;-41
2022/07/05 07:30:10;;;;;;;6.93;3.72;;;;;;;;;;5101423;28;20243;-39
2022/07/05 07:32:35;;;;;;;5.70;4.25;;;;;;;;;;5099970;28;20052;-38
2022/07/05 07:35:01;;;;;;;11.88;4.63;;;;;;;;;;5106186;28;20391;-40
2022/07/05 07:37:26;;;;;;;16.75;5.38;;;;;;;;;;5101181;28;20120;-38
2022/07/05 07:39:51;;;;;;;12.23;6.60;;;;;;;;;;5103157;28;20048;-39
2022/07/05 07:42:16;;;;;;;15.65;6.38;;;;;;;;;;5104599;28;20051;-38
2022/07/05 07:44:42;;;;;;;18.80;8.38;;;;;;;;;;5104428;28;20062;-38
2022/07/05 07:47:07;;;;;;;20.35;8.93;;;;;;;;;;5101842;28;20111;-38
2022/07/05 07:49:33;;;;;;;7.95;6.20;;;;;;;;;;5104718;28;20079;-38
2022/07/05 07:51:58;;;;;;;11.40;5.35;;;;;;;;;;5102291;28;20051;-38
2022/07/05 07:54:23;;;;;;;12.48;6.50;;;;;;;;;;5099140;28;20085;-43
2022/07/05 07:56:49;;;;;;;9.90;5.45;;;;;;;;;;5104148;28;20044;-38
2022/07/05 07:59:14;;;;;;;10.57;6.38;;;;;;;;;;5105828;28;20220;-38
2022/07/05 08:01:39;;;;;;;18.08;7.43;;;;;;;;;;5106474;28;20047;-40
2022/07/05 08:04:05;;;;;;;232.35;47.03;;;;;;;;;;5106134;28;20487;-38
2022/07/05 08:06:30;;;;;;;58.97;11.65;;;;;;;;;;5106549;28;20042;-38
2022/07/05 08:08:56;;;;;;;24.83;10.20;;;;;;;;;;5106518;28;20058;-39
2022/07/05 08:11:21;;;;;;;23.23;11.02;;;;;;;;;;5106673;28;20043;-39
2022/07/05 08:13:47;;;;;;;22.77;7.32;;;;;;;;;;5104580;28;20059;-39
2022/07/05 08:16:20;;;;;;;25.30;7.82;;;;;;;;;;5156364;27;20897;-38
2022/07/05 08:21:32;;;;;;;21.63;6.65;;;;;;;;;;5144720;27;20168;-37
2022/07/05 08:23:58;;;;;;;18.85;8.32;;;;;;;;;;5149732;27;20036;-36
2022/07/05 08:26:23;;;;;;;25.70;5.72;;;;;;;;;;5151746;27;20104;-40
2022/07/05 08:28:48;;;;;;;15.00;7.55;;;;;;;;;;5150788;27;20047;-38
2022/07/05 08:31:14;;;;;;;7.80;4.68;;;;;;;;;;5144496;27;20070;-40
2022/07/05 08:33:39;;;;;;;10.43;5.20;;;;;;;;;;5153492;27;20045;-37
2022/07/05 08:36:05;;;;;;;18.30;8.32;;;;;;;;;;5152167;27;20043;-38
2022/07/05 08:38:30;;;;;;;6.32;4.20;;;;;;;;;;5149954;27;20039;-40
2022/07/05 08:40:56;;;;;;;23.15;7.72;;;;;;;;;;5150107;27;20452;-41
2022/07/05 08:43:22;;;;;;;20.02;5.13;;;;;;;;;;5146829;27;20035;-44
2022/07/05 08:45:49;;;;;;;12.82;4.65;;;;;;;;;;5144360;27;20054;-42
2022/07/05 08:48:15;;;;;;;9.50;4.72;;;;;;;;;;5145107;27;20054;-39
2022/07/05 08:50:41;;;;;;;8.25;4.85;;;;;;;;;;5150445;27;20476;-41
2022/07/05 08:53:06;;;;;;;7.80;4.22;;;;;;;;;;5149040;27;20074;-41
2022/07/05 08:55:32;;;;;;;11.82;4.93;;;;;;;;;;5148249;27;20057;-42
2022/07/05 08:57:57;;;;;;;5.00;4.50;;;;;;;;;;5148832;27;20468;-43
2022/07/05 09:00:23;;;;;;;15.93;5.53;;;;;;;;;;5151701;27;20525;-42
2022/07/05 09:02:50;;;;;;;9.32;4.18;;;;;;;;;;5151666;27;20657;-42
2022/07/05 09:05:18;;;;;;;6.32;4.32;;;;;;;;;;5146194;27;20468;-42
2022/07/05 09:07:49;;;;;;;11.68;5.15;;;;;;;;;;5145862;27;20065;-41
2022/07/05 09:10:15;;;;;;;17.30;6.95;;;;;;;;;;5145562;27;20044;-41
2022/07/05 09:12:40;;;;;;;18.13;6.30;;;;;;;;;;5144273;27;20053;-42
2022/07/05 09:15:06;;;;;;;5.88;3.55;;;;;;;;;;5146440;27;20402;-43
2022/07/05 09:17:31;;;;;;;16.70;4.63;;;;;;;;;;5147624;27;20426;-42
2022/07/05 09:20:10;;;;;;;13.52;5.53;;;;;;;;;;5144646;27;20557;-47
2022/07/05 09:22:42;;;;;;;11.50;4.28;;;;;;;;;;5144933;27;20034;-44
2022/07/05 09:25:15;;;;;;;11.15;5.07;;;;;;;;;;5147021;27;20111;-44
2022/07/05 09:27:47;;;;;;;13.60;4.57;;;;;;;;;;5130405;27;20130;-42
2022/07/05 09:30:22;;;;;;;13.95;5.78;;;;;;;;;;5120441;27;20493;-44
2022/07/05 09:32:58;;;;;;;12.93;4.63;;;;;;;;;;5131533;27;20051;-44
2022/07/05 09:35:24;;;;;;;9.93;4.25;;;;;;;;;;5135419;27;20075;-42
2022/07/05 09:37:49;;;;;;;6.60;3.17;;;;;;;;;;5136257;27;20523;-43
2022/07/05 09:40:15;;;;;;;12.15;3.25;;;;;;;;;;5127937;27;20058;-44
2022/07/05 09:42:40;;;;;;;6.28;3.75;;;;;;;;;;5125626;27;21201;-43
2022/07/05 09:45:06;;;;;;;16.92;5.32;;;;;;;;;;5130119;27;20498;-41
2022/07/05 09:47:31;;;;;;;15.35;5.50;;;;;;;;;;5131747;27;20050;-40
2022/07/05 09:50:03;;;;;;;5.97;4.03;;;;;;;;;;5132895;27;20061;-42
2022/07/05 09:52:29;;;;;;;9.82;3.83;;;;;;;;;;5137765;27;20071;-42
2022/07/05 09:55:11;;;;;;;21.33;6.07;;;;;;;;;;5136541;27;20046;-43
2022/07/05 09:57:39;;;;;;;7.97;2.40;;;;;;;;;;5133581;27;20046;-44
2022/07/05 10:00:05;;;;;;;10.23;3.55;;;;;;;;;;5132272;27;20050;-45
2022/07/05 10:02:50;;;;;;;7.43;3.60;;;;;;;;;;5134546;27;20027;-44
2022/07/05 10:05:19;;;;;;;4.13;2.85;;;;;;;;;;5131609;27;20039;-42
2022/07/05 10:07:52;;;;;;;15.70;4.05;;;;;;;;;;5133171;27;20133;-41
2022/07/05 10:10:17;;;;;;;11.30;2.92;;;;;;;;;;5133161;27;20062;-41
2022/07/05 10:12:43;;;;;;;7.82;5.07;;;;;;;;;;5127373;27;20461;-42
2022/07/05 10:15:10;;;;;;;6.93;3.50;;;;;;;;;;5133612;27;20121;-55
2022/07/05 10:17:36;;;;;;;19.38;3.38;;;;;;;;;;5133968;27;20047;-54
2022/07/05 10:20:05;;;;;;;6.65;3.58;;;;;;;;;;5139295;27;20130;-51
2022/07/05 10:22:30;;;;;;;4.72;2.72;;;;;;;;;;5136893;27;20049;-52
2022/07/05 10:24:56;;;;;;;34.63;4.78;;;;;;;;;;5132414;27;20043;-52
2022/07/05 10:27:22;;;;;;;4.68;2.35;;;;;;;;;;5132257;27;20051;-53
2022/07/05 10:29:48;;;;;;;5.47;3.47;;;;;;;;;;5131141;27;20081;-54
2022/07/05 10:32:14;;;;;;;7.32;3.13;;;;;;;;;;5129458;27;20060;-53
2022/07/05 10:34:39;;;;;;;2.13;1.60;;;;;;;;;;5127360;27;20058;-54
2022/07/05 10:37:05;;;;;;;7.55;2.38;;;;;;;;;;5130305;27;20047;-54
2022/07/05 10:39:30;;;;;;;3.50;3.15;;;;;;;;;;5127119;27;20039;-52
2022/07/05 10:41:56;;;;;;;4.07;2.67;;;;;;;;;;5131350;27;20111;-52
2022/07/05 10:44:32;;;;;;;5.13;2.30;;;;;;;;;;5122599;27;20046;-53
2022/07/05 10:47:13;;;;;;;7.97;3.63;;;;;;;;;;5125579;27;20121;-54
2022/07/05 10:49:39;;;;;;;15.50;4.88;;;;;;;;;;5130102;27;20082;-53
2022/07/05 10:52:21;;;;;;;15.60;3.47;;;;;;;;;;5133291;27;20047;-53
2022/07/05 10:55:05;;;;;;;24.75;6.35;;;;;;;;;;5131651;27;20031;-53
2022/07/05 10:57:30;;;;;;;9.55;3.03;;;;;;;;;;5134163;27;20070;-55
2022/07/05 11:00:05;;;;;;;16.05;5.22;;;;;;;;;;5131328;27;20039;-52
2022/07/05 11:02:31;;;;;;;9.05;3.40;;;;;;;;;;5132267;27;20043;-54
2022/07/05 11:04:56;;;;;;;14.13;3.22;;;;;;;;;;5127946;27;20601;-52
2022/07/05 11:07:40;;;;;;;9.60;3.60;;;;;;;;;;5129959;27;20669;-52
2022/07/05 11:10:07;;;;;;;10.98;2.83;;;;;;;;;;5132219;27;20120;-54
2022/07/05 11:12:36;;;;;;;6.18;2.15;;;;;;;;;;5130123;27;20091;-54
2022/07/05 11:15:06;;;;;;;5.60;2.97;;;;;;;;;;5133462;27;20043;-54
2022/07/05 11:17:32;;;;;;;12.35;3.95;;;;;;;;;;5127938;27;20442;-54
2022/07/05 11:20:02;;;;;;;3.60;2.60;;;;;;;;;;5131162;27;20084;-55
2022/07/05 11:22:28;;;;;;;15.98;3.88;;;;;;;;;;5130675;27;20122;-52
2022/07/05 11:24:54;;;;;;;6.25;2.90;;;;;;;;;;5131077;27;20244;-55
2022/07/05 11:27:20;;;;;;;6.13;2.65;;;;;;;;;;5130020;27;20047;-53
2022/07/05 11:29:45;;;;;;;6.68;3.13;;;;;;;;;;5127596;27;20100;-49
2022/07/05 11:32:11;;;;;;;13.60;4.63;;;;;;;;;;5127261;27;20046;-53
2022/07/05 11:34:37;;;;;;;12.00;2.75;;;;;;;;;;5141032;27;20046;-54
2022/07/05 11:37:14;;;;;;;10.60;3.45;;;;;;;;;;5131208;27;20516;-51
2022/07/05 11:39:43;;;;;;;12.85;2.20;;;;;;;;;;5131112;27;20380;-52
2022/07/05 11:42:09;;;;;;;5.45;2.40;;;;;;;;;;5129075;27;20070;-53
2022/07/05 11:44:40;;;;;;;11.10;4.07;;;;;;;;;;5130131;27;20070;-52
2022/07/05 11:47:05;;;;;;;6.97;4.18;;;;;;;;;;5131041;27;20084;-54
2022/07/05 11:49:31;;;;;;;6.13;2.85;;;;;;;;;;5132077;27;20047;-52
2022/07/05 11:52:00;;;;;;;6.05;2.88;;;;;;;;;;5123521;27;20055;-52
2022/07/05 11:54:29;;;;;;;9.05;3.33;;;;;;;;;;5130429;27;20050;-55
2022/07/05 11:56:55;;;;;;;11.18;3.70;;;;;;;;;;5132219;27;20038;-52
2022/07/05 11:59:22;;;;;;;10.73;3.03;;;;;;;;;;5132831;27;20621;-53
2022/07/05 12:01:47;;;;;;;8.90;3.75;;;;;;;;;;5126984;27;20106;-51
2022/07/05 12:04:20;;;;;;;14.68;3.55;;;;;;;;;;5130320;27;20088;-54
2022/07/05 12:06:48;;;;;;;5.38;2.40;;;;;;;;;;5131288;27;20035;-51
2022/07/05 12:09:14;;;;;;;8.43;3.70;;;;;;;;;;5129763;27;20039;-52
2022/07/05 12:14:23;;;;;;;12.35;4.15;;;;;;;;;;5129487;27;20513;-49
2022/07/05 12:16:49;;;;;;;15.75;4.43;;;;;;;;;;5128803;27;20051;-53
2022/07/05 12:19:23;;;;;;;10.98;3.17;;;;;;;;;;5133507;27;20031;-54
2022/07/05 12:21:52;;;;;;;12.70;3.33;;;;;;;;;;5132632;27;20166;-53
2022/07/05 12:24:18;;;;;;;12.07;3.55;;;;;;;;;;5133007;27;20069;-53
2022/07/05 12:26:43;;;;;;;14.95;5.00;;;;;;;;;;5133466;27;20078;-53
2022/07/05 12:29:09;;;;;;;14.32;4.10;;;;;;;;;;5128311;27;20043;-53
2022/07/05 12:31:34;;;;;;;5.10;2.67;;;;;;;;;;5129182;27;20103;-48
2022/07/05 12:34:16;;;;;;;7.38;2.47;;;;;;;;;;5133369;27;20545;-54
2022/07/05 12:36:44;;;;;;;8.60;3.60;;;;;;;;;;5132754;27;20571;-53
2022/07/05 12:39:09;;;;;;;15.95;2.55;;;;;;;;;;5118400;27;20034;-50
2022/07/05 12:41:41;;;;;;;12.38;3.03;;;;;;;;;;5130096;27;20043;-54
2022/07/05 12:44:07;;;;;;;9.98;5.32;;;;;;;;;;5128471;27;20043;-54
2022/07/05 12:46:39;;;;;;;8.18;3.35;;;;;;;;;;5129853;27;20943;-52
2022/07/05 12:49:04;;;;;;;4.07;1.98;;;;;;;;;;5129885;27;20157;-54
2022/07/05 12:51:33;;;;;;;38.78;4.95;;;;;;;;;;5127247;27;20513;-52
2022/07/05 12:59:30;;;;;;;10.00;2.83;;;;;;;;;;5130330;27;20694;-54
2022/07/05 13:01:55;;;;;;;5.07;2.35;;;;;;;;;;5125705;27;20040;-54
2022/07/05 13:04:21;;;;;;;7.72;3.13;;;;;;;;;;5133137;27;20075;-49
2022/07/05 13:06:50;;;;;;;7.38;3.13;;;;;;;;;;5133464;27;20487;-52
2022/07/05 13:09:27;;;;;;;12.95;5.63;;;;;;;;;;5131971;27;20046;-54
2022/07/05 13:12:04;;;;;;;9.68;3.38;;;;;;;;;;5131120;27;20032;-49
2022/07/05 13:14:30;;;;;;;9.88;5.00;;;;;;;;;;5132358;27;20234;-53
2022/07/05 13:16:55;;;;;;;5.43;1.73;;;;;;;;;;5132057;27;20603;-52
2022/07/05 13:19:20;;;;;;;21.35;5.82;;;;;;;;;;5133770;27;20066;-54
2022/07/05 13:21:45;;;;;;;5.85;2.83;;;;;;;;;;5135261;27;20352;-55
2022/07/05 13:24:11;;;;;;;7.82;3.30;;;;;;;;;;5130173;27;20046;-50
2022/07/05 13:26:36;;;;;;;10.18;3.13;;;;;;;;;;5125512;27;20414;-52
2022/07/05 13:29:01;;;;;;;4.25;2.38;;;;;;;;;;5131647;27;20212;-52
2022/07/05 13:31:28;;;;;;;19.33;3.55;;;;;;;;;;5130615;27;20078;-48
2022/07/05 13:33:54;;;;;;;16.80;6.93;;;;;;;;;;5127276;27;20030;-51
2022/07/05 13:36:19;;;;;;;5.80;3.28;;;;;;;;;;5131040;27;20047;-50
2022/07/05 13:38:44;;;;;;;5.10;2.03;;;;;;;;;;5133625;27;20610;-49
2022/07/05 13:41:10;;;;;;;7.25;4.45;;;;;;;;;;5126548;27;20043;-51
2022/07/05 13:43:35;;;;;;;9.50;6.13;;;;;;;;;;5112700;27;20043;-50
2022/07/05 13:46:00;;;;;;;7.82;3.25;;;;;;;;;;5132639;27;20054;-52
2022/07/05 13:48:25;;;;;;;3.72;2.25;;;;;;;;;;5134917;27;20516;-50
2022/07/05 13:50:51;;;;;;;12.93;3.40;;;;;;;;;;5136330;27;20481;-50
2022/07/05 13:53:16;;;;;;;6.50;2.80;;;;;;;;;;5133677;27;20722;-53
2022/07/05 13:55:41;;;;;;;8.15;4.07;;;;;;;;;;5132509;27;20138;-55
2022/07/05 13:58:07;;;;;;;5.07;3.05;;;;;;;;;;5131172;27;20494;-54
2022/07/05 14:00:32;;;;;;;4.28;2.72;;;;;;;;;;5106112;27;20105;-54
2022/07/05 14:02:57;;;;;;;13.95;3.50;;;;;;;;;;5131893;27;20163;-54
2022/07/05 14:05:23;;;;;;;6.75;2.20;;;;;;;;;;5132751;27;20513;-54
2022/07/05 14:07:48;;;;;;;4.75;2.53;;;;;;;;;;5133784;27;20074;-54
2022/07/05 14:10:14;;;;;;;8.32;2.80;;;;;;;;;;5131007;27;20465;-55
2022/07/05 14:12:42;;;;;;;5.15;2.35;;;;;;;;;;5132801;27;20127;-54
2022/07/05 14:15:07;;;;;;;3.60;2.25;;;;;;;;;;5135102;27;20043;-55
2022/07/05 14:17:33;;;;;;;4.20;1.77;;;;;;;;;;5134012;27;20414;-51
2022/07/05 14:19:58;;;;;;;7.50;3.22;;;;;;;;;;5130777;27;20087;-51
2022/07/05 14:22:23;;;;;;;11.82;2.97;;;;;;;;;;5135733;27;20046;-53
2022/07/05 14:24:49;;;;;;;7.18;3.15;;;;;;;;;;5132672;27;21035;-53
2022/07/05 14:27:14;;;;;;;6.25;2.58;;;;;;;;;;5132744;27;20043;-52
2022/07/05 14:29:39;;;;;;;2.38;1.80;;;;;;;;;;5134494;27;20045;-50
2022/07/05 14:32:05;;;;;;;6.68;2.75;;;;;;;;;;5134105;27;20108;-50
2022/07/05 14:34:30;;;;;;;7.38;3.35;;;;;;;;;;5124389;27;20538;-50
2022/07/05 14:36:56;;;;;;;7.43;2.88;;;;;;;;;;5127759;27;20043;-53
2022/07/05 14:39:21;;;;;;;7.75;3.35;;;;;;;;;;5129506;27;20078;-51
2022/07/05 14:41:46;;;;;;;7.50;3.40;;;;;;;;;;5131187;27;20042;-50
2022/07/05 14:44:12;;;;;;;10.43;4.50;;;;;;;;;;5128500;27;20055;-53